sensor_id;sensor_type;location;lat;lon;timestamp;P1;durP1;ratioP1;P2;durP2;ratioP2
57225;SDS011;43082;43.568;22.256;2023-01-13T00:01:11;26.75;;;16.73;;
57225;SDS011;43082;43.568;22.256;2023-01-13T00:03:38;26.33;;;16.90;;
57225;SDS011;43082;43.568;22.256;2023-01-13T00:06:04;33.97;;;21.48;;
57225;SDS011;43082;43.568;22.256;2023-01-13T00:08:31;33.13;;;21.52;;
57225;SDS011;43082;43.568;22.256;2023-01-13T00:10:56;37.70;;;24.75;;
57225;SDS011;43082;43.568;22.256;2023-01-13T00:13:22;34.88;;;23.33;;
57225;SDS011;43082;43.568;22.256;2023-01-13T00:16:00;42.00;;;27.73;;
57225;SDS011;43082;43.568;22.256;2023-01-13T00:18:27;47.40;;;31.17;;
57225;SDS011;43082;43.568;22.256;2023-01-13T00:21:03;39.03;;;26.80;;
57225;SDS011;43082;43.568;22.256;2023-01-13T00:23:29;32.05;;;21.98;;
57225;SDS011;43082;43.568;22.256;2023-01-13T00:25:56;25.30;;;15.98;;
57225;SDS011;43082;43.568;22.256;2023-01-13T00:28:22;23.92;;;15.35;;
57225;SDS011;43082;43.568;22.256;2023-01-13T00:30:48;22.27;;;15.02;;
57225;SDS011;43082;43.568;22.256;2023-01-13T00:33:13;21.63;;;13.88;;
57225;SDS011;43082;43.568;22.256;2023-01-13T00:35:39;20.02;;;12.98;;
57225;SDS011;43082;43.568;22.256;2023-01-13T00:38:04;17.55;;;11.55;;
57225;SDS011;43082;43.568;22.256;2023-01-13T00:40:29;26.63;;;16.70;;
57225;SDS011;43082;43.568;22.256;2023-01-13T00:42:55;20.90;;;12.82;;
57225;SDS011;43082;43.568;22.256;2023-01-13T00:45:39;18.60;;;11.15;;
57225;SDS011;43082;43.568;22.256;2023-01-13T00:48:04;27.02;;;16.98;;
57225;SDS011;43082;43.568;22.256;2023-01-13T00:50:30;28.63;;;17.38;;
57225;SDS011;43082;43.568;22.256;2023-01-13T00:52:57;34.13;;;21.27;;
57225;SDS011;43082;43.568;22.256;2023-01-13T00:55:24;29.95;;;18.92;;
57225;SDS011;43082;43.568;22.256;2023-01-13T00:57:49;29.50;;;19.02;;
57225;SDS011;43082;43.568;22.256;2023-01-13T01:00:15;31.33;;;21.65;;
57225;SDS011;43082;43.568;22.256;2023-01-13T01:02:40;30.65;;;21.10;;
57225;SDS011;43082;43.568;22.256;2023-01-13T01:05:06;28.65;;;19.45;;
57225;SDS011;43082;43.568;22.256;2023-01-13T01:07:32;24.10;;;16.92;;
57225;SDS011;43082;43.568;22.256;2023-01-13T01:09:57;23.40;;;15.77;;
57225;SDS011;43082;43.568;22.256;2023-01-13T01:12:22;26.33;;;15.75;;
57225;SDS011;43082;43.568;22.256;2023-01-13T01:14:48;28.02;;;16.90;;
57225;SDS011;43082;43.568;22.256;2023-01-13T01:17:13;18.55;;;12.48;;
57225;SDS011;43082;43.568;22.256;2023-01-13T01:19:38;26.10;;;16.80;;
57225;SDS011;43082;43.568;22.256;2023-01-13T01:22:04;16.83;;;11.35;;
57225;SDS011;43082;43.568;22.256;2023-01-13T01:24:30;17.60;;;11.73;;
57225;SDS011;43082;43.568;22.256;2023-01-13T01:26:55;15.77;;;10.85;;
57225;SDS011;43082;43.568;22.256;2023-01-13T01:29:21;13.32;;;8.80;;
57225;SDS011;43082;43.568;22.256;2023-01-13T01:31:46;12.38;;;8.52;;
57225;SDS011;43082;43.568;22.256;2023-01-13T01:34:11;11.23;;;6.95;;
57225;SDS011;43082;43.568;22.256;2023-01-13T01:36:37;11.60;;;7.38;;
57225;SDS011;43082;43.568;22.256;2023-01-13T01:39:03;7.95;;;4.75;;
57225;SDS011;43082;43.568;22.256;2023-01-13T01:41:29;15.23;;;9.65;;
57225;SDS011;43082;43.568;22.256;2023-01-13T01:43:57;9.88;;;5.95;;
57225;SDS011;43082;43.568;22.256;2023-01-13T01:49:24;18.27;;;12.35;;
57225;SDS011;43082;43.568;22.256;2023-01-13T01:54:26;28.27;;;17.70;;
57225;SDS011;43082;43.568;22.256;2023-01-13T01:57:02;12.35;;;7.50;;
57225;SDS011;43082;43.568;22.256;2023-01-13T01:59:28;16.67;;;9.88;;
57225;SDS011;43082;43.568;22.256;2023-01-13T02:01:56;15.52;;;9.45;;
57225;SDS011;43082;43.568;22.256;2023-01-13T02:04:32;13.57;;;8.68;;
57225;SDS011;43082;43.568;22.256;2023-01-13T02:06:59;9.52;;;5.93;;
57225;SDS011;43082;43.568;22.256;2023-01-13T02:09:25;11.35;;;6.90;;
57225;SDS011;43082;43.568;22.256;2023-01-13T02:11:51;11.77;;;6.60;;
57225;SDS011;43082;43.568;22.256;2023-01-13T02:14:35;12.63;;;7.60;;
57225;SDS011;43082;43.568;22.256;2023-01-13T02:17:25;11.50;;;7.25;;
57225;SDS011;43082;43.568;22.256;2023-01-13T02:25:38;6.50;;;3.80;;
57225;SDS011;43082;43.568;22.256;2023-01-13T02:31:37;8.25;;;4.30;;
57225;SDS011;43082;43.568;22.256;2023-01-13T02:34:12;5.68;;;2.88;;
57225;SDS011;43082;43.568;22.256;2023-01-13T02:39:18;8.27;;;5.07;;
57225;SDS011;43082;43.568;22.256;2023-01-13T02:44:46;9.00;;;5.57;;
57225;SDS011;43082;43.568;22.256;2023-01-13T02:47:17;10.15;;;5.78;;
57225;SDS011;43082;43.568;22.256;2023-01-13T02:49:48;8.75;;;5.65;;
57225;SDS011;43082;43.568;22.256;2023-01-13T02:55:04;14.57;;;7.72;;
57225;SDS011;43082;43.568;22.256;2023-01-13T02:57:32;12.50;;;7.30;;
57225;SDS011;43082;43.568;22.256;2023-01-13T02:59:59;10.13;;;6.22;;
57225;SDS011;43082;43.568;22.256;2023-01-13T03:02:25;12.73;;;7.90;;
57225;SDS011;43082;43.568;22.256;2023-01-13T03:04:52;14.10;;;8.27;;
57225;SDS011;43082;43.568;22.256;2023-01-13T03:07:25;11.80;;;7.30;;
57225;SDS011;43082;43.568;22.256;2023-01-13T03:10:01;16.60;;;9.80;;
57225;SDS011;43082;43.568;22.256;2023-01-13T03:15:40;11.85;;;7.97;;
57225;SDS011;43082;43.568;22.256;2023-01-13T03:18:13;14.13;;;9.50;;
57225;SDS011;43082;43.568;22.256;2023-01-13T03:20:47;15.25;;;10.13;;
57225;SDS011;43082;43.568;22.256;2023-01-13T03:23:21;12.02;;;7.80;;
57225;SDS011;43082;43.568;22.256;2023-01-13T03:25:52;14.10;;;8.50;;
57225;SDS011;43082;43.568;22.256;2023-01-13T03:28:26;17.67;;;9.98;;
57225;SDS011;43082;43.568;22.256;2023-01-13T03:30:56;15.98;;;9.48;;
57225;SDS011;43082;43.568;22.256;2023-01-13T03:33:27;24.88;;;13.32;;
57225;SDS011;43082;43.568;22.256;2023-01-13T03:35:55;22.85;;;13.88;;
57225;SDS011;43082;43.568;22.256;2023-01-13T03:38:24;22.30;;;12.18;;
57225;SDS011;43082;43.568;22.256;2023-01-13T03:40:53;23.27;;;14.93;;
57225;SDS011;43082;43.568;22.256;2023-01-13T03:43:27;31.02;;;17.67;;
57225;SDS011;43082;43.568;22.256;2023-01-13T03:46:17;27.80;;;16.17;;
57225;SDS011;43082;43.568;22.256;2023-01-13T03:48:46;25.92;;;16.30;;
57225;SDS011;43082;43.568;22.256;2023-01-13T03:51:14;29.17;;;17.33;;
57225;SDS011;43082;43.568;22.256;2023-01-13T03:53:46;25.20;;;15.43;;
57225;SDS011;43082;43.568;22.256;2023-01-13T03:56:16;23.20;;;14.48;;
57225;SDS011;43082;43.568;22.256;2023-01-13T03:58:46;24.40;;;15.30;;
57225;SDS011;43082;43.568;22.256;2023-01-13T04:01:26;19.05;;;10.75;;
57225;SDS011;43082;43.568;22.256;2023-01-13T04:15:13;10.32;;;5.72;;
57225;SDS011;43082;43.568;22.256;2023-01-13T04:17:39;8.82;;;4.90;;
57225;SDS011;43082;43.568;22.256;2023-01-13T04:20:05;9.63;;;4.65;;
57225;SDS011;43082;43.568;22.256;2023-01-13T04:22:31;10.95;;;5.97;;
57225;SDS011;43082;43.568;22.256;2023-01-13T04:24:56;8.82;;;5.20;;
57225;SDS011;43082;43.568;22.256;2023-01-13T04:27:21;20.13;;;10.60;;
57225;SDS011;43082;43.568;22.256;2023-01-13T04:29:47;9.77;;;5.20;;
57225;SDS011;43082;43.568;22.256;2023-01-13T04:32:12;11.57;;;6.53;;
57225;SDS011;43082;43.568;22.256;2023-01-13T04:34:38;13.18;;;7.75;;
57225;SDS011;43082;43.568;22.256;2023-01-13T04:37:03;13.70;;;8.80;;
57225;SDS011;43082;43.568;22.256;2023-01-13T04:39:28;20.20;;;9.68;;
57225;SDS011;43082;43.568;22.256;2023-01-13T04:41:54;22.67;;;10.68;;
57225;SDS011;43082;43.568;22.256;2023-01-13T04:44:22;14.48;;;8.30;;
57225;SDS011;43082;43.568;22.256;2023-01-13T04:46:47;15.85;;;8.93;;
57225;SDS011;43082;43.568;22.256;2023-01-13T04:49:13;14.77;;;9.55;;
57225;SDS011;43082;43.568;22.256;2023-01-13T04:51:38;14.70;;;10.32;;
57225;SDS011;43082;43.568;22.256;2023-01-13T04:54:03;16.60;;;10.95;;
57225;SDS011;43082;43.568;22.256;2023-01-13T04:56:29;22.40;;;13.60;;
57225;SDS011;43082;43.568;22.256;2023-01-13T04:58:55;21.15;;;14.40;;
57225;SDS011;43082;43.568;22.256;2023-01-13T05:01:20;43.70;;;26.50;;
57225;SDS011;43082;43.568;22.256;2023-01-13T05:03:45;35.38;;;24.42;;
57225;SDS011;43082;43.568;22.256;2023-01-13T05:06:11;12.95;;;7.88;;
57225;SDS011;43082;43.568;22.256;2023-01-13T05:08:36;12.15;;;6.75;;
57225;SDS011;43082;43.568;22.256;2023-01-13T05:11:01;15.77;;;8.80;;
57225;SDS011;43082;43.568;22.256;2023-01-13T05:13:47;50.47;;;32.00;;
57225;SDS011;43082;43.568;22.256;2023-01-13T05:16:31;21.75;;;14.15;;
57225;SDS011;43082;43.568;22.256;2023-01-13T05:19:15;18.05;;;10.15;;
57225;SDS011;43082;43.568;22.256;2023-01-13T05:21:40;10.32;;;6.07;;
57225;SDS011;43082;43.568;22.256;2023-01-13T05:24:24;26.20;;;16.65;;
57225;SDS011;43082;43.568;22.256;2023-01-13T05:27:08;61.50;;;43.00;;
57225;SDS011;43082;43.568;22.256;2023-01-13T05:29:33;63.85;;;46.38;;
57225;SDS011;43082;43.568;22.256;2023-01-13T05:31:59;71.60;;;52.85;;
57225;SDS011;43082;43.568;22.256;2023-01-13T05:34:26;36.50;;;29.20;;
57225;SDS011;43082;43.568;22.256;2023-01-13T05:36:52;38.40;;;32.00;;
57225;SDS011;43082;43.568;22.256;2023-01-13T05:39:17;24.33;;;20.33;;
57225;SDS011;43082;43.568;22.256;2023-01-13T05:41:42;15.18;;;12.38;;
57225;SDS011;43082;43.568;22.256;2023-01-13T05:44:26;15.13;;;10.90;;
57225;SDS011;43082;43.568;22.256;2023-01-13T05:46:52;24.80;;;17.88;;
57225;SDS011;43082;43.568;22.256;2023-01-13T05:49:17;24.02;;;17.75;;
57225;SDS011;43082;43.568;22.256;2023-01-13T05:51:43;36.88;;;23.88;;
57225;SDS011;43082;43.568;22.256;2023-01-13T05:54:08;28.90;;;20.23;;
57225;SDS011;43082;43.568;22.256;2023-01-13T05:56:33;39.03;;;26.25;;
57225;SDS011;43082;43.568;22.256;2023-01-13T05:58:59;40.10;;;29.17;;
57225;SDS011;43082;43.568;22.256;2023-01-13T06:01:24;42.45;;;28.60;;
57225;SDS011;43082;43.568;22.256;2023-01-13T06:03:49;61.67;;;44.15;;
57225;SDS011;43082;43.568;22.256;2023-01-13T06:06:15;85.45;;;54.92;;
57225;SDS011;43082;43.568;22.256;2023-01-13T06:08:40;47.47;;;31.35;;
57225;SDS011;43082;43.568;22.256;2023-01-13T06:11:06;46.10;;;30.73;;
57225;SDS011;43082;43.568;22.256;2023-01-13T06:13:31;57.50;;;37.78;;
57225;SDS011;43082;43.568;22.256;2023-01-13T06:15:57;44.05;;;27.83;;
57225;SDS011;43082;43.568;22.256;2023-01-13T06:18:23;42.22;;;28.75;;
57225;SDS011;43082;43.568;22.256;2023-01-13T06:20:49;35.70;;;25.23;;
57225;SDS011;43082;43.568;22.256;2023-01-13T06:23:14;39.38;;;27.02;;
57225;SDS011;43082;43.568;22.256;2023-01-13T06:25:42;62.50;;;43.15;;
57225;SDS011;43082;43.568;22.256;2023-01-13T06:28:10;59.80;;;42.95;;
57225;SDS011;43082;43.568;22.256;2023-01-13T06:30:41;45.45;;;31.50;;
57225;SDS011;43082;43.568;22.256;2023-01-13T06:33:12;47.35;;;36.45;;
57225;SDS011;43082;43.568;22.256;2023-01-13T06:35:39;42.85;;;32.45;;
57225;SDS011;43082;43.568;22.256;2023-01-13T06:38:08;48.00;;;35.45;;
57225;SDS011;43082;43.568;22.256;2023-01-13T06:40:35;46.72;;;35.65;;
57225;SDS011;43082;43.568;22.256;2023-01-13T06:43:00;17.58;;;12.07;;
57225;SDS011;43082;43.568;22.256;2023-01-13T06:45:39;16.95;;;10.85;;
57225;SDS011;43082;43.568;22.256;2023-01-13T06:48:30;16.75;;;11.57;;
57225;SDS011;43082;43.568;22.256;2023-01-13T06:50:58;25.95;;;17.05;;
57225;SDS011;43082;43.568;22.256;2023-01-13T06:53:23;25.08;;;18.65;;
57225;SDS011;43082;43.568;22.256;2023-01-13T06:55:49;26.73;;;19.63;;
57225;SDS011;43082;43.568;22.256;2023-01-13T06:58:14;28.88;;;19.80;;
57225;SDS011;43082;43.568;22.256;2023-01-13T07:00:40;21.35;;;16.40;;
57225;SDS011;43082;43.568;22.256;2023-01-13T07:03:06;24.73;;;17.67;;
57225;SDS011;43082;43.568;22.256;2023-01-13T07:05:32;24.58;;;17.85;;
57225;SDS011;43082;43.568;22.256;2023-01-13T07:07:58;39.45;;;27.05;;
57225;SDS011;43082;43.568;22.256;2023-01-13T07:10:23;28.17;;;19.42;;
57225;SDS011;43082;43.568;22.256;2023-01-13T07:12:49;17.65;;;10.88;;
57225;SDS011;43082;43.568;22.256;2023-01-13T07:15:33;27.38;;;19.05;;
57225;SDS011;43082;43.568;22.256;2023-01-13T07:17:59;65.13;;;47.50;;
57225;SDS011;43082;43.568;22.256;2023-01-13T07:20:25;87.55;;;64.78;;
57225;SDS011;43082;43.568;22.256;2023-01-13T07:22:53;95.25;;;69.88;;
57225;SDS011;43082;43.568;22.256;2023-01-13T07:25:19;72.18;;;51.17;;
57225;SDS011;43082;43.568;22.256;2023-01-13T07:27:45;47.55;;;36.38;;
57225;SDS011;43082;43.568;22.256;2023-01-13T07:30:10;38.05;;;26.83;;
57225;SDS011;43082;43.568;22.256;2023-01-13T07:32:36;33.95;;;26.45;;
57225;SDS011;43082;43.568;22.256;2023-01-13T07:35:02;38.13;;;27.38;;
57225;SDS011;43082;43.568;22.256;2023-01-13T07:37:31;44.88;;;34.10;;
57225;SDS011;43082;43.568;22.256;2023-01-13T07:39:57;39.10;;;26.90;;
57225;SDS011;43082;43.568;22.256;2023-01-13T07:42:23;15.45;;;11.20;;
57225;SDS011;43082;43.568;22.256;2023-01-13T07:45:07;24.23;;;17.40;;
57225;SDS011;43082;43.568;22.256;2023-01-13T07:47:33;25.98;;;18.33;;
57225;SDS011;43082;43.568;22.256;2023-01-13T07:49:58;24.50;;;17.33;;
57225;SDS011;43082;43.568;22.256;2023-01-13T07:52:24;29.17;;;19.00;;
57225;SDS011;43082;43.568;22.256;2023-01-13T07:54:49;29.05;;;18.98;;
57225;SDS011;43082;43.568;22.256;2023-01-13T07:57:14;33.90;;;22.65;;
57225;SDS011;43082;43.568;22.256;2023-01-13T07:59:40;26.45;;;17.67;;
57225;SDS011;43082;43.568;22.256;2023-01-13T08:02:08;33.88;;;23.58;;
57225;SDS011;43082;43.568;22.256;2023-01-13T08:04:35;21.73;;;14.60;;
57225;SDS011;43082;43.568;22.256;2023-01-13T08:07:00;43.08;;;29.70;;
57225;SDS011;43082;43.568;22.256;2023-01-13T08:09:26;89.45;;;61.25;;
57225;SDS011;43082;43.568;22.256;2023-01-13T08:11:53;63.85;;;49.75;;
57225;SDS011;43082;43.568;22.256;2023-01-13T08:14:38;62.35;;;48.13;;
57225;SDS011;43082;43.568;22.256;2023-01-13T08:17:03;82.07;;;60.33;;
57225;SDS011;43082;43.568;22.256;2023-01-13T08:19:29;77.50;;;58.42;;
57225;SDS011;43082;43.568;22.256;2023-01-13T08:21:55;77.40;;;56.30;;
57225;SDS011;43082;43.568;22.256;2023-01-13T08:24:20;78.35;;;57.85;;
57225;SDS011;43082;43.568;22.256;2023-01-13T08:26:46;57.50;;;44.42;;
57225;SDS011;43082;43.568;22.256;2023-01-13T08:29:11;53.33;;;41.33;;
57225;SDS011;43082;43.568;22.256;2023-01-13T08:31:37;50.75;;;39.65;;
57225;SDS011;43082;43.568;22.256;2023-01-13T08:34:02;21.75;;;14.55;;
57225;SDS011;43082;43.568;22.256;2023-01-13T08:36:27;22.20;;;15.20;;
57225;SDS011;43082;43.568;22.256;2023-01-13T08:38:53;41.95;;;30.15;;
57225;SDS011;43082;43.568;22.256;2023-01-13T08:41:18;59.67;;;43.70;;
57225;SDS011;43082;43.568;22.256;2023-01-13T08:44:05;90.45;;;67.07;;
57225;SDS011;43082;43.568;22.256;2023-01-13T08:46:31;81.07;;;61.88;;
57225;SDS011;43082;43.568;22.256;2023-01-13T08:48:56;75.78;;;57.05;;
57225;SDS011;43082;43.568;22.256;2023-01-13T08:51:21;124.53;;;83.25;;
57225;SDS011;43082;43.568;22.256;2023-01-13T08:53:47;82.40;;;59.55;;
57225;SDS011;43082;43.568;22.256;2023-01-13T08:56:12;50.03;;;38.38;;
57225;SDS011;43082;43.568;22.256;2023-01-13T08:58:38;47.70;;;37.50;;
57225;SDS011;43082;43.568;22.256;2023-01-13T09:01:05;33.25;;;26.20;;
57225;SDS011;43082;43.568;22.256;2023-01-13T09:03:31;26.05;;;20.67;;
57225;SDS011;43082;43.568;22.256;2023-01-13T09:05:56;24.95;;;18.95;;
57225;SDS011;43082;43.568;22.256;2023-01-13T09:08:21;23.27;;;17.63;;
57225;SDS011;43082;43.568;22.256;2023-01-13T09:10:47;25.77;;;19.23;;
57225;SDS011;43082;43.568;22.256;2023-01-13T09:13:12;22.48;;;15.52;;
57225;SDS011;43082;43.568;22.256;2023-01-13T09:15:39;23.27;;;16.08;;
57225;SDS011;43082;43.568;22.256;2023-01-13T09:18:05;17.42;;;12.48;;
57225;SDS011;43082;43.568;22.256;2023-01-13T09:20:31;19.92;;;13.98;;
57225;SDS011;43082;43.568;22.256;2023-01-13T09:22:56;26.23;;;19.52;;
57225;SDS011;43082;43.568;22.256;2023-01-13T09:25:22;27.52;;;18.70;;
57225;SDS011;43082;43.568;22.256;2023-01-13T09:27:47;18.83;;;12.05;;
57225;SDS011;43082;43.568;22.256;2023-01-13T09:30:12;19.63;;;14.35;;
57225;SDS011;43082;43.568;22.256;2023-01-13T09:32:38;18.88;;;12.35;;
57225;SDS011;43082;43.568;22.256;2023-01-13T09:35:05;19.88;;;13.25;;
57225;SDS011;43082;43.568;22.256;2023-01-13T09:37:35;22.90;;;15.88;;
57225;SDS011;43082;43.568;22.256;2023-01-13T09:40:03;19.02;;;12.82;;
57225;SDS011;43082;43.568;22.256;2023-01-13T09:42:37;18.55;;;11.63;;
57225;SDS011;43082;43.568;22.256;2023-01-13T09:45:26;17.15;;;12.68;;
57225;SDS011;43082;43.568;22.256;2023-01-13T09:53:11;40.53;;;28.30;;
57225;SDS011;43082;43.568;22.256;2023-01-13T09:55:39;19.77;;;13.32;;
57225;SDS011;43082;43.568;22.256;2023-01-13T09:58:15;21.15;;;12.65;;
57225;SDS011;43082;43.568;22.256;2023-01-13T10:00:47;16.58;;;11.68;;
57225;SDS011;43082;43.568;22.256;2023-01-13T10:03:38;23.20;;;15.57;;
57225;SDS011;43082;43.568;22.256;2023-01-13T10:06:07;19.58;;;13.02;;
57225;SDS011;43082;43.568;22.256;2023-01-13T10:08:40;15.45;;;9.80;;
57225;SDS011;43082;43.568;22.256;2023-01-13T10:11:14;40.00;;;25.38;;
57225;SDS011;43082;43.568;22.256;2023-01-13T10:14:08;16.80;;;11.07;;
57225;SDS011;43082;43.568;22.256;2023-01-13T10:16:42;19.10;;;13.40;;
57225;SDS011;43082;43.568;22.256;2023-01-13T10:19:21;22.02;;;16.02;;
57225;SDS011;43082;43.568;22.256;2023-01-13T10:21:57;26.83;;;19.95;;
57225;SDS011;43082;43.568;22.256;2023-01-13T10:27:32;36.05;;;28.58;;
57225;SDS011;43082;43.568;22.256;2023-01-13T10:32:42;40.35;;;30.73;;
57225;SDS011;43082;43.568;22.256;2023-01-13T10:35:08;38.03;;;29.23;;
57225;SDS011;43082;43.568;22.256;2023-01-13T10:37:33;41.00;;;29.40;;
57225;SDS011;43082;43.568;22.256;2023-01-13T10:40:02;32.00;;;23.33;;
57225;SDS011;43082;43.568;22.256;2023-01-13T10:42:29;33.67;;;26.08;;
57225;SDS011;43082;43.568;22.256;2023-01-13T10:44:58;29.35;;;22.63;;
57225;SDS011;43082;43.568;22.256;2023-01-13T10:47:28;35.35;;;26.83;;
57225;SDS011;43082;43.568;22.256;2023-01-13T10:52:33;32.20;;;22.10;;
57225;SDS011;43082;43.568;22.256;2023-01-13T10:55:22;28.15;;;21.98;;
57225;SDS011;43082;43.568;22.256;2023-01-13T10:58:17;26.42;;;19.02;;
57225;SDS011;43082;43.568;22.256;2023-01-13T11:00:44;28.70;;;20.00;;
57225;SDS011;43082;43.568;22.256;2023-01-13T11:06:17;23.48;;;17.52;;
57225;SDS011;43082;43.568;22.256;2023-01-13T11:08:43;24.80;;;17.30;;
57225;SDS011;43082;43.568;22.256;2023-01-13T11:14:24;23.65;;;17.83;;
57225;SDS011;43082;43.568;22.256;2023-01-13T11:20:03;131.00;;;59.20;;
57225;SDS011;43082;43.568;22.256;2023-01-13T11:22:38;169.10;;;108.18;;
57225;SDS011;43082;43.568;22.256;2023-01-13T11:25:09;44.50;;;31.23;;
57225;SDS011;43082;43.568;22.256;2023-01-13T11:38:32;50.55;;;39.08;;
57225;SDS011;43082;43.568;22.256;2023-01-13T11:41:04;42.35;;;32.60;;
57225;SDS011;43082;43.568;22.256;2023-01-13T11:46:30;30.90;;;23.77;;
57225;SDS011;43082;43.568;22.256;2023-01-13T11:48:56;33.10;;;26.40;;
57225;SDS011;43082;43.568;22.256;2023-01-13T11:51:25;41.42;;;31.30;;
57225;SDS011;43082;43.568;22.256;2023-01-13T11:59:05;18.30;;;11.70;;
57225;SDS011;43082;43.568;22.256;2023-01-13T12:06:53;23.27;;;17.23;;
57225;SDS011;43082;43.568;22.256;2023-01-13T12:23:46;29.15;;;21.80;;
57225;SDS011;43082;43.568;22.256;2023-01-13T12:26:34;20.17;;;13.88;;
57225;SDS011;43082;43.568;22.256;2023-01-13T12:29:08;23.58;;;16.60;;
57225;SDS011;43082;43.568;22.256;2023-01-13T12:31:37;23.02;;;17.25;;
57225;SDS011;43082;43.568;22.256;2023-01-13T12:42:51;35.95;;;26.02;;
57225;SDS011;43082;43.568;22.256;2023-01-13T12:52:16;32.15;;;22.30;;
57225;SDS011;43082;43.568;22.256;2023-01-13T12:56:54;29.60;;;23.48;;
57225;SDS011;43082;43.568;22.256;2023-01-13T13:01:48;26.30;;;19.10;;
57225;SDS011;43082;43.568;22.256;2023-01-13T13:04:19;22.88;;;17.88;;
57225;SDS011;43082;43.568;22.256;2023-01-13T13:07:15;28.95;;;21.65;;
57225;SDS011;43082;43.568;22.256;2023-01-13T13:10:33;28.33;;;21.05;;
57225;SDS011;43082;43.568;22.256;2023-01-13T13:12:53;31.50;;;24.80;;
57225;SDS011;43082;43.568;22.256;2023-01-13T13:15:41;22.05;;;16.95;;
57225;SDS011;43082;43.568;22.256;2023-01-13T13:26:35;29.58;;;21.92;;
57225;SDS011;43082;43.568;22.256;2023-01-13T13:32:09;28.02;;;16.38;;
57225;SDS011;43082;43.568;22.256;2023-01-13T13:34:53;19.75;;;14.13;;
57225;SDS011;43082;43.568;22.256;2023-01-13T13:37:40;25.35;;;19.25;;
57225;SDS011;43082;43.568;22.256;2023-01-13T13:40:37;26.80;;;19.42;;
57225;SDS011;43082;43.568;22.256;2023-01-13T13:43:22;35.30;;;26.52;;
57225;SDS011;43082;43.568;22.256;2023-01-13T13:49:21;25.15;;;17.08;;
57225;SDS011;43082;43.568;22.256;2023-01-13T13:52:04;22.60;;;16.52;;
57225;SDS011;43082;43.568;22.256;2023-01-13T13:57:00;21.40;;;15.73;;
57225;SDS011;43082;43.568;22.256;2023-01-13T13:59:27;21.17;;;15.95;;
57225;SDS011;43082;43.568;22.256;2023-01-13T14:01:57;25.33;;;16.08;;
57225;SDS011;43082;43.568;22.256;2023-01-13T14:04:28;25.55;;;17.88;;
57225;SDS011;43082;43.568;22.256;2023-01-13T14:06:56;23.52;;;15.43;;
57225;SDS011;43082;43.568;22.256;2023-01-13T14:09:45;23.50;;;15.13;;
57225;SDS011;43082;43.568;22.256;2023-01-13T14:12:24;28.20;;;19.90;;
57225;SDS011;43082;43.568;22.256;2023-01-13T14:14:51;40.00;;;28.67;;
57225;SDS011;43082;43.568;22.256;2023-01-13T14:17:19;29.00;;;20.52;;
57225;SDS011;43082;43.568;22.256;2023-01-13T14:19:55;31.58;;;21.52;;
57225;SDS011;43082;43.568;22.256;2023-01-13T14:22:25;33.60;;;24.45;;
57225;SDS011;43082;43.568;22.256;2023-01-13T14:24:50;11.73;;;7.82;;
57225;SDS011;43082;43.568;22.256;2023-01-13T14:27:23;27.77;;;21.80;;
57225;SDS011;43082;43.568;22.256;2023-01-13T14:29:52;41.22;;;30.58;;
57225;SDS011;43082;43.568;22.256;2023-01-13T14:32:19;45.38;;;30.98;;
57225;SDS011;43082;43.568;22.256;2023-01-13T14:34:46;20.42;;;13.65;;
57225;SDS011;43082;43.568;22.256;2023-01-13T14:37:25;18.90;;;13.23;;
57225;SDS011;43082;43.568;22.256;2023-01-13T14:39:52;24.45;;;18.38;;
57225;SDS011;43082;43.568;22.256;2023-01-13T14:42:18;34.13;;;25.73;;
57225;SDS011;43082;43.568;22.256;2023-01-13T14:44:45;42.67;;;32.83;;
57225;SDS011;43082;43.568;22.256;2023-01-13T14:52:55;56.90;;;40.28;;
57225;SDS011;43082;43.568;22.256;2023-01-13T14:55:31;55.75;;;42.97;;
57225;SDS011;43082;43.568;22.256;2023-01-13T14:58:22;73.70;;;54.45;;
57225;SDS011;43082;43.568;22.256;2023-01-13T15:00:49;69.13;;;47.67;;
57225;SDS011;43082;43.568;22.256;2023-01-13T15:03:16;37.08;;;26.38;;
57225;SDS011;43082;43.568;22.256;2023-01-13T15:05:50;27.25;;;18.83;;
57225;SDS011;43082;43.568;22.256;2023-01-13T15:08:27;38.97;;;30.45;;
57225;SDS011;43082;43.568;22.256;2023-01-13T15:10:58;25.40;;;18.35;;
57225;SDS011;43082;43.568;22.256;2023-01-13T15:15:56;49.50;;;35.58;;
57225;SDS011;43082;43.568;22.256;2023-01-13T15:18:23;41.00;;;31.05;;
57225;SDS011;43082;43.568;22.256;2023-01-13T15:20:48;48.70;;;35.15;;
57225;SDS011;43082;43.568;22.256;2023-01-13T15:23:17;31.70;;;23.90;;
57225;SDS011;43082;43.568;22.256;2023-01-13T15:25:43;55.72;;;43.88;;
57225;SDS011;43082;43.568;22.256;2023-01-13T15:28:13;21.55;;;16.08;;
57225;SDS011;43082;43.568;22.256;2023-01-13T15:30:39;82.25;;;61.88;;
57225;SDS011;43082;43.568;22.256;2023-01-13T15:33:05;13.10;;;9.73;;
57225;SDS011;43082;43.568;22.256;2023-01-13T15:35:30;31.63;;;25.33;;
57225;SDS011;43082;43.568;22.256;2023-01-13T15:37:56;54.40;;;41.28;;
57225;SDS011;43082;43.568;22.256;2023-01-13T15:40:31;35.95;;;27.20;;
57225;SDS011;43082;43.568;22.256;2023-01-13T15:45:41;52.58;;;38.17;;
57225;SDS011;43082;43.568;22.256;2023-01-13T15:48:25;40.83;;;28.57;;
57225;SDS011;43082;43.568;22.256;2023-01-13T15:50:52;44.63;;;30.50;;
57225;SDS011;43082;43.568;22.256;2023-01-13T15:53:17;29.70;;;23.63;;
57225;SDS011;43082;43.568;22.256;2023-01-13T15:55:44;28.55;;;22.42;;
57225;SDS011;43082;43.568;22.256;2023-01-13T15:58:13;30.40;;;25.30;;
57225;SDS011;43082;43.568;22.256;2023-01-13T16:00:39;36.22;;;27.52;;
57225;SDS011;43082;43.568;22.256;2023-01-13T16:03:05;32.20;;;24.60;;
57225;SDS011;43082;43.568;22.256;2023-01-13T16:05:33;47.88;;;33.85;;
57225;SDS011;43082;43.568;22.256;2023-01-13T16:07:59;43.78;;;33.03;;
57225;SDS011;43082;43.568;22.256;2023-01-13T16:10:25;45.28;;;33.47;;
57225;SDS011;43082;43.568;22.256;2023-01-13T16:12:52;43.65;;;32.50;;
57225;SDS011;43082;43.568;22.256;2023-01-13T16:15:20;45.10;;;34.45;;
57225;SDS011;43082;43.568;22.256;2023-01-13T16:17:57;60.88;;;45.83;;
57225;SDS011;43082;43.568;22.256;2023-01-13T16:20:24;27.83;;;20.58;;
57225;SDS011;43082;43.568;22.256;2023-01-13T16:22:49;39.95;;;30.63;;
57225;SDS011;43082;43.568;22.256;2023-01-13T16:25:16;56.78;;;45.10;;
57225;SDS011;43082;43.568;22.256;2023-01-13T16:27:42;106.80;;;80.63;;
57225;SDS011;43082;43.568;22.256;2023-01-13T16:32:42;118.53;;;84.90;;
57225;SDS011;43082;43.568;22.256;2023-01-13T16:35:08;146.63;;;101.85;;
57225;SDS011;43082;43.568;22.256;2023-01-13T16:37:34;136.57;;;92.75;;
57225;SDS011;43082;43.568;22.256;2023-01-13T16:40:00;162.48;;;109.00;;
57225;SDS011;43082;43.568;22.256;2023-01-13T16:42:25;104.40;;;74.28;;
57225;SDS011;43082;43.568;22.256;2023-01-13T16:44:50;96.38;;;68.32;;
57225;SDS011;43082;43.568;22.256;2023-01-13T16:47:16;61.17;;;43.45;;
57225;SDS011;43082;43.568;22.256;2023-01-13T16:49:42;57.88;;;42.70;;
57225;SDS011;43082;43.568;22.256;2023-01-13T16:52:08;99.15;;;74.80;;
57225;SDS011;43082;43.568;22.256;2023-01-13T16:54:34;59.22;;;44.97;;